This is the latest recevied weather packets stored in our database for station/object W4EDL-13. If no packets are shown the sender has not sent any weather packets the latest 10 day(s).
| Time | Temp. | Humidity | Pressure | Rain* | Wind** | Luminosity | Snow |
|---|---|---|---|---|---|---|---|
| 1777064189 | 28.33° C | 48% | 1002.9 hPa | - | - | - | - |
| 1777064168 | 28.33° C | 48% | 1002.9 hPa | - | - | - | - |
| 1777063588 | 26.67° C | 51% | 1002.9 hPa | - | - | - | - |
| 1777063568 | 26.67° C | 51% | 1002.9 hPa | - | - | - | - |
| 1777062988 | 26.67° C | 51% | 1002.9 hPa | - | - | - | - |
| 1777062967 | 26.67° C | 51% | 1002.9 hPa | - | - | - | - |
| 1777062387 | 28.33° C | 47% | 1002.9 hPa | - | - | - | - |
| 1777062367 | 28.33° C | 47% | 1002.9 hPa | - | - | - | - |
| 1777061786 | 27.78° C | 50% | 1002.9 hPa | - | - | - | - |
| 1777061766 | 27.78° C | 51% | 1002.9 hPa | - | - | - | - |
| 1777061186 | 26.67° C | 52% | 1002.9 hPa | - | - | - | - |
| 1777061165 | 26.67° C | 52% | 1002.9 hPa | - | - | - | - |
| 1777060585 | 28.33° C | 50% | 1002.9 hPa | - | - | - | - |
| 1777060565 | 28.33° C | 50% | 1002.9 hPa | - | - | - | - |
| 1777059985 | 27.22° C | 52% | 1003.2 hPa | - | - | - | - |
| 1777059964 | 27.22° C | 52% | 1003.2 hPa | - | - | - | - |
| 1777059384 | 28.33° C | 48% | 1003.2 hPa | - | - | - | - |
| 1777059364 | 28.33° C | 48% | 1003.2 hPa | - | - | - | - |
| 1777058783 | 29.44° C | 45% | 1003.2 hPa | - | - | - | - |
| 1777058763 | 28.89° C | 46% | 1003.2 hPa | - | - | - | - |
| 1777058183 | 29.44° C | 48% | 1003.2 hPa | - | - | - | - |
| 1777058163 | 28.89° C | 49% | 1003.2 hPa | - | - | - | - |
* Rain since midnight (hover to see other rain measurements)
** Current wind speed in m/s (hover to see current wind gust speed)